Time;durP1;ratioP1;P1;durP2;ratioP2;P2;SDS_P1;SDS_P2;PMS_P1;PMS_P2;Temp;Humidity;BMP_temperature;BMP_pressure;BME280_temperature;BME280_humidity;BME280_pressure;Samples;Min_cycle;Max_cycle;Signal;HPM_P1;HPM_P2
2022/08/13 00:00:59;;;;;;;6.40;2.47;;;20.80;99.90;;;;;;5074892;28;20663;-83
2022/08/13 00:03:53;;;;;;;8.30;1.80;;;20.80;99.90;;;;;;5094359;28;20332;-83
2022/08/13 00:09:26;;;;;;;3.50;2.28;;;20.60;99.90;;;;;;5091510;28;20063;-84
2022/08/13 00:15:31;;;;;;;9.13;2.72;;;20.50;99.90;;;;;;5097418;28;20051;-85
2022/08/13 00:18:20;;;;;;;5.45;2.55;;;20.40;99.90;;;;;;5093244;28;20496;-85
2022/08/13 00:21:07;;;;;;;7.78;2.45;;;20.30;99.90;;;;;;5093938;28;20036;-84
2022/08/13 00:23:54;;;;;;;6.05;2.40;;;20.30;99.90;;;;;;5093431;28;20084;-83
2022/08/13 00:26:41;;;;;;;6.30;2.88;;;20.20;99.90;;;;;;5093809;28;20044;-84
2022/08/13 00:29:28;;;;;;;7.13;2.60;;;20.20;99.90;;;;;;5093780;28;20052;-84
2022/08/13 00:32:16;;;;;;;8.35;2.58;;;20.10;99.90;;;;;;5074558;28;20087;-84
2022/08/13 00:35:02;;;;;;;5.40;2.45;;;20.10;99.90;;;;;;5076820;28;20063;-84
2022/08/13 00:37:48;;;;;;;5.15;2.33;;;20.00;99.90;;;;;;5061153;28;20051;-84
2022/08/13 00:40:35;;;;;;;7.13;2.40;;;20.00;99.90;;;;;;5077490;28;20169;-84
2022/08/13 00:43:21;;;;;;;5.03;2.33;;;19.90;99.90;;;;;;5074247;28;20086;-84
2022/08/13 00:46:07;;;;;;;5.63;2.17;;;19.90;99.90;;;;;;5076525;28;20059;-84
2022/08/13 00:48:54;;;;;;;4.95;2.20;;;19.80;99.90;;;;;;5093829;28;20113;-85
2022/08/13 00:51:42;;;;;;;7.45;2.78;;;19.80;99.90;;;;;;5091672;28;20086;-85
2022/08/13 00:54:28;;;;;;;7.53;2.00;;;19.70;99.90;;;;;;5076402;28;20056;-84
2022/08/13 00:57:14;;;;;;;5.82;2.30;;;19.70;99.90;;;;;;5092626;28;20056;-83
2022/08/13 01:00:11;;;;;;;8.10;2.35;;;19.70;99.90;;;;;;5074033;28;20075;-84
2022/08/13 01:02:58;;;;;;;6.72;2.58;;;19.60;99.90;;;;;;5091991;28;20040;-84
2022/08/13 01:05:46;;;;;;;5.97;2.40;;;19.60;99.90;;;;;;5093617;28;20051;-84
2022/08/13 01:08:34;;;;;;;5.93;2.53;;;19.60;99.90;;;;;;5075989;28;20492;-84
2022/08/13 01:11:23;;;;;;;7.63;3.22;;;19.50;99.90;;;;;;5060046;28;20135;-84
2022/08/13 01:14:09;;;;;;;6.28;2.45;;;19.50;99.90;;;;;;5061387;28;20051;-84
2022/08/13 01:16:55;;;;;;;10.32;3.15;;;19.50;99.90;;;;;;5073771;28;20506;-84
2022/08/13 01:19:44;;;;;;;5.55;2.47;;;19.40;99.90;;;;;;5091977;28;20123;-83
2022/08/13 01:22:33;;;;;;;7.20;2.65;;;19.40;99.90;;;;;;5091700;28;20385;-84
2022/08/13 01:25:21;;;;;;;7.65;3.28;;;19.40;99.90;;;;;;5061217;28;20048;-84
2022/08/13 01:28:08;;;;;;;5.10;2.90;;;19.30;99.90;;;;;;5091984;28;20040;-84
2022/08/13 01:30:57;;;;;;;8.57;3.30;;;19.30;99.90;;;;;;5092282;28;20052;-84
2022/08/13 01:33:44;;;;;;;7.40;3.10;;;19.30;99.90;;;;;;5074365;28;20511;-84
2022/08/13 01:36:31;;;;;;;6.05;3.05;;;19.20;99.90;;;;;;5063844;28;20044;-84
2022/08/13 01:39:17;;;;;;;5.53;3.00;;;19.20;99.90;;;;;;5095090;28;20048;-84
2022/08/13 01:42:04;;;;;;;6.43;3.20;;;19.20;99.90;;;;;;5082730;28;20055;-84
2022/08/13 01:44:51;;;;;;;6.65;3.17;;;19.20;99.90;;;;;;5093042;28;20591;-84
2022/08/13 01:50:42;;;;;;;;;;;19.10;99.90;;;;;;5074754;28;20063;-83
2022/08/13 01:53:29;;;;;;;7.65;3.55;;;19.10;99.90;;;;;;5075337;28;19924;-84
2022/08/13 01:56:21;;;;;;;6.32;3.30;;;19.10;99.90;;;;;;5094023;28;20040;-84
2022/08/13 01:59:07;;;;;;;7.30;3.88;;;19.00;99.90;;;;;;5075854;28;20138;-83
2022/08/13 02:01:54;;;;;;;4.78;2.95;;;19.00;99.90;;;;;;5060792;28;20048;-82
2022/08/13 02:04:41;;;;;;;8.07;3.13;;;19.00;99.90;;;;;;5073251;28;20087;-84
2022/08/13 02:07:29;;;;;;;6.22;2.97;;;19.00;99.90;;;;;;5092011;28;20400;-84
2022/08/13 02:10:20;;;;;;;6.18;3.30;;;19.00;99.90;;;;;;5072637;28;20052;-84
2022/08/13 02:13:11;;;;;;;7.53;3.55;;;19.00;99.90;;;;;;5064139;28;20557;-83
2022/08/13 02:15:57;;;;;;;7.90;3.78;;;18.90;99.90;;;;;;5048142;28;20131;-84
2022/08/13 02:18:44;;;;;;;7.65;3.97;;;18.90;99.90;;;;;;5073065;28;20051;-83
2022/08/13 02:21:36;;;;;;;7.15;3.85;;;18.90;99.90;;;;;;5058936;28;20521;-83
2022/08/13 02:24:22;;;;;;;7.68;4.32;;;18.90;99.90;;;;;;5091055;28;20044;-83
2022/08/13 02:27:09;;;;;;;9.23;4.13;;;18.90;99.90;;;;;;5091991;28;20048;-83
2022/08/13 02:29:57;;;;;;;6.72;3.70;;;18.80;99.90;;;;;;5089947;28;20082;-84
2022/08/13 02:32:43;;;;;;;8.43;4.55;;;18.80;99.90;;;;;;5072068;28;20059;-83
2022/08/13 02:35:29;;;;;;;8.55;4.60;;;18.80;99.90;;;;;;5075770;28;20163;-83
2022/08/13 02:38:17;;;;;;;8.18;4.60;;;18.80;99.90;;;;;;5090836;28;20044;-82
2022/08/13 02:44:14;;;;;;;8.32;4.55;;;18.70;99.90;;;;;;5072046;28;20059;-85
2022/08/13 02:47:01;;;;;;;9.40;4.78;;;18.60;99.90;;;;;;5072175;28;20044;-83
2022/08/13 02:49:51;;;;;;;8.85;4.68;;;18.60;99.90;;;;;;5073133;28;20161;-83
2022/08/13 02:52:39;;;;;;;7.82;4.68;;;18.60;99.90;;;;;;5058989;28;20082;-84
2022/08/13 02:55:29;;;;;;;9.25;4.32;;;18.60;99.90;;;;;;5094766;28;20090;-83
2022/08/13 02:58:16;;;;;;;6.90;4.25;;;18.60;99.90;;;;;;5073198;28;20048;-84
2022/08/13 03:01:03;;;;;;;9.75;4.88;;;18.50;99.90;;;;;;5072884;28;20048;-84
2022/08/13 03:03:50;;;;;;;8.88;4.50;;;18.50;99.90;;;;;;5058050;28;20045;-84
2022/08/13 03:06:36;;;;;;;8.90;4.65;;;18.50;99.90;;;;;;5072490;28;20144;-83
2022/08/13 03:09:23;;;;;;;9.05;4.15;;;18.40;99.90;;;;;;5089107;28;20052;-85
2022/08/13 03:12:10;;;;;;;8.13;4.60;;;18.40;99.90;;;;;;5090003;28;20051;-84
2022/08/13 03:14:58;;;;;;;8.88;4.32;;;18.40;99.90;;;;;;5090240;28;20040;-84
2022/08/13 03:17:44;;;;;;;11.05;4.28;;;18.30;99.90;;;;;;5089876;28;20050;-84
2022/08/13 03:20:31;;;;;;;7.65;4.55;;;18.20;99.90;;;;;;5072557;28;20048;-85
2022/08/13 03:23:17;;;;;;;8.93;4.57;;;18.20;99.90;;;;;;5071409;28;20059;-84
2022/08/13 03:26:04;;;;;;;9.43;4.45;;;18.20;99.90;;;;;;5070897;28;20292;-85
2022/08/13 03:28:51;;;;;;;7.10;3.90;;;18.10;99.90;;;;;;5074243;28;20137;-84
2022/08/13 03:31:39;;;;;;;12.48;5.05;;;18.10;99.90;;;;;;5090023;28;20044;-83
2022/08/13 03:34:25;;;;;;;10.30;5.80;;;18.10;99.90;;;;;;5058236;28;20056;-85
2022/08/13 03:37:11;;;;;;;8.85;4.32;;;18.10;99.90;;;;;;5092141;28;20055;-84
2022/08/13 03:39:57;;;;;;;8.30;4.32;;;18.20;99.90;;;;;;5091153;28;20040;-86
2022/08/13 03:42:45;;;;;;;10.18;4.70;;;18.20;99.90;;;;;;5073693;28;20098;-84
2022/08/13 03:45:31;;;;;;;6.40;3.83;;;18.20;99.90;;;;;;5090485;28;20048;-85
2022/08/13 03:48:17;;;;;;;7.25;4.13;;;18.20;99.90;;;;;;5088427;28;20052;-84
2022/08/13 03:51:07;;;;;;;9.88;4.50;;;18.20;99.90;;;;;;5089914;28;20055;-84
2022/08/13 03:53:54;;;;;;;11.60;4.45;;;18.20;99.90;;;;;;5047468;28;20415;-85
2022/08/13 03:56:40;;;;;;;12.45;5.15;;;18.20;99.90;;;;;;5072579;28;20051;-84
2022/08/13 03:59:28;;;;;;;7.75;4.97;;;18.20;99.90;;;;;;5090485;28;20407;-84
2022/08/13 04:02:16;;;;;;;6.57;4.03;;;18.10;99.90;;;;;;5058813;28;20055;-84
2022/08/13 04:05:03;;;;;;;9.80;3.78;;;18.10;99.90;;;;;;5089706;28;20063;-84
2022/08/13 04:07:51;;;;;;;7.78;4.85;;;18.10;99.90;;;;;;5089899;28;20518;-85
2022/08/13 04:10:38;;;;;;;7.35;4.32;;;18.10;99.90;;;;;;5071463;28;20190;-85
2022/08/13 04:13:26;;;;;;;10.00;3.90;;;18.10;99.90;;;;;;5072311;28;20528;-85
2022/08/13 04:16:16;;;;;;;6.55;3.53;;;18.10;99.90;;;;;;5061807;28;20044;-82
2022/08/13 04:19:03;;;;;;;6.75;3.72;;;18.10;99.90;;;;;;5076818;28;20046;-85
2022/08/13 04:21:49;;;;;;;8.13;3.92;;;18.10;99.90;;;;;;5090753;28;20081;-85
2022/08/13 04:24:36;;;;;;;8.38;3.83;;;18.10;99.90;;;;;;5072458;28;20045;-84
2022/08/13 04:27:23;;;;;;;6.72;4.00;;;18.10;99.90;;;;;;5074009;28;20139;-84
2022/08/13 04:30:09;;;;;;;11.45;4.43;;;18.10;99.90;;;;;;5059666;28;20048;-85
2022/08/13 04:32:56;;;;;;;7.20;4.07;;;18.10;99.90;;;;;;5087945;28;20094;-84
2022/08/13 04:35:44;;;;;;;8.73;3.97;;;18.10;99.90;;;;;;5073308;28;20051;-85
2022/08/13 04:38:30;;;;;;;6.97;4.22;;;18.10;99.90;;;;;;5088727;28;20051;-83
2022/08/13 04:41:17;;;;;;;9.35;4.20;;;18.10;99.90;;;;;;5075469;28;20055;-84
2022/08/13 04:44:03;;;;;;;8.07;3.50;;;18.10;99.90;;;;;;5089699;28;20190;-84
2022/08/13 04:46:50;;;;;;;7.13;4.03;;;18.10;99.90;;;;;;5089643;28;20051;-84
2022/08/13 04:49:37;;;;;;;8.30;3.95;;;18.10;99.90;;;;;;5088273;28;20048;-84
2022/08/13 04:52:23;;;;;;;8.98;3.95;;;18.10;99.90;;;;;;5088164;28;20091;-85
2022/08/13 04:55:12;;;;;;;7.18;4.18;;;18.10;99.90;;;;;;5073759;28;20048;-84
2022/08/13 04:57:59;;;;;;;8.43;4.28;;;18.20;99.90;;;;;;5091695;28;20048;-83
2022/08/13 05:00:45;;;;;;;6.95;3.75;;;18.20;99.90;;;;;;5076127;28;20063;-81
2022/08/13 05:03:32;;;;;;;7.68;4.18;;;18.20;99.90;;;;;;5090380;28;20051;-81
2022/08/13 05:06:21;;;;;;;8.15;4.13;;;18.30;99.90;;;;;;5094338;28;20130;-82
2022/08/13 05:09:07;;;;;;;7.90;3.70;;;18.30;99.90;;;;;;5092757;28;20483;-82
2022/08/13 05:11:55;;;;;;;8.30;3.72;;;18.40;99.90;;;;;;5093170;28;20044;-83
2022/08/13 05:14:41;;;;;;;7.45;3.90;;;18.40;99.90;;;;;;5094203;28;20123;-84
2022/08/13 05:17:30;;;;;;;7.53;4.88;;;18.50;99.90;;;;;;5094717;28;20062;-86
2022/08/13 05:20:16;;;;;;;8.75;3.63;;;18.60;99.90;;;;;;5090403;28;20389;-87
2022/08/13 05:23:07;;;;;;;7.53;4.00;;;18.70;99.90;;;;;;5078740;28;20048;-85
2022/08/13 05:25:53;;;;;;;9.40;4.20;;;18.80;99.90;;;;;;5092417;28;20055;-84
2022/08/13 05:28:40;;;;;;;6.93;3.83;;;18.90;99.90;;;;;;5082435;28;20044;-84
2022/08/13 05:31:27;;;;;;;8.73;3.95;;;19.00;99.90;;;;;;5093257;28;20135;-84
2022/08/13 05:34:13;;;;;;;7.60;3.55;;;19.10;99.90;;;;;;5099508;28;20063;-85
2022/08/13 05:36:59;;;;;;;13.02;4.78;;;19.10;99.90;;;;;;5096336;28;20111;-84
2022/08/13 05:39:47;;;;;;;7.82;4.50;;;19.30;99.90;;;;;;5085671;28;20111;-85
2022/08/13 05:42:39;;;;;;;9.10;3.75;;;19.40;99.90;;;;;;5100303;28;20056;-86
2022/08/13 05:45:25;;;;;;;9.25;4.18;;;19.50;99.90;;;;;;5103357;28;20044;-87
2022/08/13 05:48:12;;;;;;;9.13;4.32;;;19.60;99.90;;;;;;5098724;28;20044;-87
2022/08/13 05:51:00;;;;;;;7.45;3.50;;;19.70;99.90;;;;;;5091596;28;20052;-87
2022/08/13 05:53:47;;;;;;;8.15;4.05;;;19.80;99.90;;;;;;5091225;28;20040;-87
2022/08/13 05:56:36;;;;;;;9.52;3.85;;;19.90;99.90;;;;;;5091098;28;20139;-89
2022/08/13 06:05:32;;;;;;;6.93;3.25;;;20.20;99.90;;;;;;5091837;28;20130;-84
2022/08/13 06:08:19;;;;;;;6.57;3.75;;;20.40;99.90;;;;;;5091703;28;20392;-84
2022/08/13 06:11:15;;;;;;;6.97;3.58;;;20.50;99.90;;;;;;5092130;28;20040;-87
2022/08/13 06:14:02;;;;;;;7.55;3.80;;;20.60;99.90;;;;;;5091107;28;20048;-88
2022/08/13 06:16:51;;;;;;;10.77;5.00;;;20.80;99.90;;;;;;5091946;28;20071;-86
2022/08/13 06:19:38;;;;;;;9.35;3.28;;;20.90;99.90;;;;;;5091715;28;20040;-86
2022/08/13 06:22:25;;;;;;;7.10;3.65;;;21.00;99.90;;;;;;5091317;28;20101;-83
2022/08/13 06:25:12;;;;;;;5.75;3.10;;;21.20;99.90;;;;;;5089005;28;20044;-85
2022/08/13 06:28:04;;;;;;;5.90;3.13;;;21.30;99.90;;;;;;5090214;28;20055;-84
2022/08/13 06:30:52;;;;;;;6.72;3.10;;;21.50;99.90;;;;;;5096910;28;20461;-82
2022/08/13 06:33:38;;;;;;;7.88;3.80;;;21.60;99.90;;;;;;5091991;28;20089;-85
2022/08/13 06:36:29;;;;;;;5.93;2.60;;;21.80;99.60;;;;;;5090617;28;20083;-85
2022/08/13 06:39:17;;;;;;;8.77;2.90;;;21.90;99.30;;;;;;5090729;28;20040;-83
2022/08/13 06:42:04;;;;;;;7.00;2.70;;;22.10;99.20;;;;;;5091790;28;20048;-84
2022/08/13 06:44:53;;;;;;;8.55;2.60;;;22.20;99.00;;;;;;5090451;28;20047;-84
2022/08/13 06:47:41;;;;;;;8.40;3.75;;;22.40;99.00;;;;;;5090208;28;20047;-85
2022/08/13 06:50:27;;;;;;;6.22;3.00;;;22.50;98.50;;;;;;5088957;28;20059;-85
2022/08/13 06:53:14;;;;;;;11.82;3.22;;;22.70;98.40;;;;;;5090838;28;20043;-83
2022/08/13 06:56:02;;;;;;;6.45;2.55;;;22.90;98.20;;;;;;5090413;28;20488;-83
2022/08/13 06:58:51;;;;;;;9.02;3.08;;;23.10;98.00;;;;;;5092292;28;20048;-83
2022/08/13 07:01:37;;;;;;;18.83;3.67;;;23.20;97.80;;;;;;5089984;28;20511;-81
2022/08/13 07:04:24;;;;;;;9.45;3.38;;;23.40;97.70;;;;;;5093970;28;20063;-81
2022/08/13 07:07:10;;;;;;;7.57;2.95;;;23.60;97.40;;;;;;5092962;28;20048;-80
2022/08/13 07:09:57;;;;;;;11.50;2.53;;;23.60;97.10;;;;;;5089486;28;20055;-80
2022/08/13 07:12:43;;;;;;;4.78;2.30;;;23.80;97.20;;;;;;5090519;28;20055;-81
2022/08/13 07:15:29;;;;;;;6.53;2.53;;;24.00;96.90;;;;;;5089192;28;20044;-82
2022/08/13 07:18:16;;;;;;;4.90;2.20;;;24.10;96.70;;;;;;5088197;28;20154;-85
2022/08/13 07:21:07;;;;;;;8.73;2.20;;;24.30;96.50;;;;;;5096402;28;20035;-82
2022/08/13 07:23:54;;;;;;;8.32;2.30;;;24.50;96.60;;;;;;5098613;28;20564;-81
2022/08/13 07:26:41;;;;;;;7.20;2.20;;;24.60;96.50;;;;;;5094009;28;20040;-83
2022/08/13 07:29:28;;;;;;;6.75;2.00;;;24.80;96.10;;;;;;5098653;28;20040;-85
2022/08/13 07:32:14;;;;;;;7.35;2.13;;;25.00;95.50;;;;;;5092097;28;20051;-84
2022/08/13 07:35:00;;;;;;;6.53;1.60;;;25.10;95.00;;;;;;5079175;28;20041;-82
2022/08/13 07:37:52;;;;;;;8.18;2.25;;;25.30;94.70;;;;;;5097938;28;20048;-84
2022/08/13 07:40:39;;;;;;;5.47;1.55;;;25.50;94.20;;;;;;5100510;28;20047;-85
2022/08/13 07:43:26;;;;;;;4.38;1.88;;;25.70;94.20;;;;;;5100488;28;20054;-86
2022/08/13 07:46:17;;;;;;;6.97;1.70;;;25.90;94.10;;;;;;5101021;28;20054;-85
2022/08/13 07:49:04;;;;;;;14.98;2.22;;;26.10;94.10;;;;;;5093015;28;20070;-86
2022/08/13 07:51:51;;;;;;;4.93;1.48;;;26.40;94.00;;;;;;5094076;28;20044;-86
2022/08/13 07:54:40;;;;;;;10.00;1.77;;;26.60;93.40;;;;;;5094022;28;20077;-86
2022/08/13 07:57:31;;;;;;;4.28;1.92;;;26.70;92.80;;;;;;5090613;28;20060;-82
2022/08/13 08:00:29;;;;;;;4.40;2.00;;;26.90;93.10;;;;;;5099532;28;20055;-83
2022/08/13 08:03:16;;;;;;;7.15;1.50;;;27.00;92.40;;;;;;5092140;28;20055;-86
2022/08/13 08:06:03;;;;;;;5.30;1.60;;;27.10;92.00;;;;;;5090907;28;20457;-85
2022/08/13 08:08:52;;;;;;;4.30;1.40;;;27.30;91.70;;;;;;5089794;28;20437;-82
2022/08/13 08:14:44;;;;;;;9.95;1.85;;;27.60;90.40;;;;;;5103854;28;20115;-85
2022/08/13 08:17:31;;;;;;;5.13;1.50;;;27.80;90.10;;;;;;5099512;28;20404;-87
2022/08/13 08:20:21;;;;;;;7.30;1.50;;;27.90;89.70;;;;;;5093625;28;20052;-82
2022/08/13 08:23:10;;;;;;;4.07;1.42;;;27.90;88.30;;;;;;5078775;28;20047;-78
2022/08/13 08:25:57;;;;;;;4.63;1.50;;;28.20;89.50;;;;;;5104024;28;20037;-84
2022/08/13 08:28:46;;;;;;;4.38;1.45;;;28.40;88.30;;;;;;5097196;28;20519;-81
2022/08/13 08:31:33;;;;;;;5.45;1.25;;;28.50;87.20;;;;;;5098844;28;20050;-83
2022/08/13 08:34:19;;;;;;;7.45;1.95;;;28.70;86.50;;;;;;5092309;28;20083;-80
2022/08/13 08:37:06;;;;;;;6.20;1.00;;;28.90;86.20;;;;;;5058723;28;20369;-80
2022/08/13 08:43:04;;;;;;;8.63;1.60;;;29.30;84.10;;;;;;5074688;28;20102;-82
2022/08/13 08:45:55;;;;;;;4.03;1.30;;;29.50;82.00;;;;;;5056629;28;20048;-83
2022/08/13 08:48:42;;;;;;;4.25;1.33;;;29.60;79.20;;;;;;5092753;28;20097;-82
2022/08/13 08:51:29;;;;;;;4.22;1.13;;;29.70;77.00;;;;;;5092701;28;20037;-83
2022/08/13 08:54:17;;;;;;;6.38;1.33;;;29.90;76.00;;;;;;5039203;28;20144;-84
2022/08/13 08:57:05;;;;;;;3.85;1.23;;;30.10;76.10;;;;;;5032511;28;20057;-85
2022/08/13 08:59:51;;;;;;;5.10;1.10;;;30.20;74.30;;;;;;5031185;28;20136;-79
2022/08/13 09:02:40;;;;;;;7.05;1.40;;;30.40;72.20;;;;;;5032464;28;20099;-83
2022/08/13 09:05:31;;;;;;;6.45;1.25;;;30.50;72.50;;;;;;5014227;28;20492;-84
2022/08/13 09:08:18;;;;;;;3.72;1.05;;;30.60;70.20;;;;;;5032124;28;20099;-83
2022/08/13 09:11:05;;;;;;;5.68;1.17;;;30.70;69.70;;;;;;5030477;28;20052;-84
2022/08/13 09:13:52;;;;;;;5.32;1.35;;;30.70;69.00;;;;;;5028615;28;20100;-82
2022/08/13 09:16:38;;;;;;;5.05;1.30;;;30.80;67.80;;;;;;5013668;28;20524;-80
2022/08/13 09:19:27;;;;;;;4.22;1.50;;;30.90;68.40;;;;;;5030138;28;20045;-83
2022/08/13 09:22:19;;;;;;;3.80;1.20;;;31.10;66.50;;;;;;5022473;28;20056;-84
2022/08/13 09:25:07;;;;;;;3.72;1.40;;;31.10;63.80;;;;;;5030650;28;20072;-85
2022/08/13 09:27:54;;;;;;;3.60;1.20;;;31.10;64.30;;;;;;5015072;28;20456;-87
2022/08/13 09:30:45;;;;;;;6.88;1.20;;;31.10;65.10;;;;;;5013638;28;20575;-83
2022/08/13 09:33:38;;;;;;;3.67;0.90;;;31.30;64.80;;;;;;5030416;28;20038;-83
2022/08/13 09:36:27;;;;;;;5.20;0.88;;;31.40;64.50;;;;;;5031469;28;20045;-82
2022/08/13 09:39:35;;;;;;;3.30;1.10;;;31.40;63.40;;;;;;5036264;28;20046;-80
2022/08/13 09:42:33;;;;;;;5.47;1.75;;;31.70;61.80;;;;;;5052755;28;20045;-82
2022/08/13 09:45:19;;;;;;;4.53;1.10;;;31.80;60.80;;;;;;5030217;28;20053;-83
2022/08/13 09:48:07;;;;;;;3.70;0.88;;;31.90;61.80;;;;;;5037656;28;20516;-83
2022/08/13 09:50:54;;;;;;;3.80;0.95;;;32.00;60.20;;;;;;5018096;28;20572;-85
2022/08/13 09:53:41;;;;;;;5.70;1.52;;;31.90;59.60;;;;;;5031325;28;20053;-84
2022/08/13 09:56:27;;;;;;;4.30;1.30;;;32.10;59.00;;;;;;5017731;28;20584;-84
2022/08/13 09:59:15;;;;;;;6.03;1.38;;;32.30;59.30;;;;;;5031149;28;20572;-83
2022/08/13 10:02:05;;;;;;;3.00;1.27;;;32.30;58.60;;;;;;5032924;28;20064;-81
2022/08/13 10:04:52;;;;;;;6.45;1.02;;;32.70;59.00;;;;;;5031775;28;20731;-84
2022/08/13 10:07:40;;;;;;;6.20;1.52;;;32.70;56.50;;;;;;5034476;28;20064;-85
2022/08/13 10:10:27;;;;;;;5.18;1.27;;;32.90;55.40;;;;;;5031161;28;20049;-81
2022/08/13 10:13:14;;;;;;;5.97;1.00;;;32.90;54.00;;;;;;5015337;28;20153;-82
2022/08/13 10:16:00;;;;;;;5.20;1.05;;;32.90;54.70;;;;;;5018141;28;20049;-82
2022/08/13 10:18:47;;;;;;;5.05;1.10;;;33.20;54.30;;;;;;5035429;28;20060;-81
2022/08/13 10:21:33;;;;;;;3.08;0.95;;;33.30;53.00;;;;;;5029176;28;20123;-80
2022/08/13 10:24:19;;;;;;;3.25;0.82;;;33.40;54.00;;;;;;5033315;28;20099;-82
2022/08/13 10:27:06;;;;;;;4.68;1.40;;;33.50;52.40;;;;;;5030057;28;20049;-81
2022/08/13 10:29:52;;;;;;;4.88;1.15;;;33.70;52.10;;;;;;5014859;28;20446;-79
2022/08/13 10:32:39;;;;;;;5.00;1.00;;;33.70;52.00;;;;;;5033680;28;20135;-82
2022/08/13 10:35:27;;;;;;;5.40;1.23;;;33.70;51.60;;;;;;5014649;28;20127;-82
2022/08/13 10:38:17;;;;;;;2.63;1.20;;;33.70;50.90;;;;;;5029649;28;20053;-84
2022/08/13 10:41:07;;;;;;;4.38;1.02;;;33.90;50.40;;;;;;5026448;28;20087;-82
2022/08/13 10:43:59;;;;;;;10.20;1.13;;;34.00;50.40;;;;;;5031577;28;20045;-83
2022/08/13 10:46:46;;;;;;;4.40;1.05;;;34.30;49.50;;;;;;5005023;28;20045;-82
2022/08/13 10:49:33;;;;;;;1.83;0.88;;;34.30;48.80;;;;;;5040886;28;20053;-81
2022/08/13 10:52:20;;;;;;;2.85;1.20;;;34.50;48.90;;;;;;5039487;28;20126;-80
2022/08/13 10:55:08;;;;;;;5.13;1.10;;;34.60;49.20;;;;;;5034507;28;20044;-81
2022/08/13 10:57:54;;;;;;;4.55;1.95;;;34.50;48.30;;;;;;5039327;28;20049;-82
2022/08/13 11:00:41;;;;;;;5.85;1.00;;;34.70;48.60;;;;;;5038630;28;20041;-80
2022/08/13 11:03:27;;;;;;;8.77;1.80;;;34.80;48.90;;;;;;5032795;28;20046;-81
2022/08/13 11:06:13;;;;;;;4.03;1.10;;;35.00;48.10;;;;;;5034773;28;20045;-79
2022/08/13 11:08:59;;;;;;;2.50;0.80;;;35.00;47.80;;;;;;5033812;28;20437;-82
2022/08/13 11:11:46;;;;;;;3.03;0.95;;;35.20;47.00;;;;;;5029228;28;20079;-81
2022/08/13 11:14:32;;;;;;;6.50;1.23;;;35.20;46.70;;;;;;5021032;28;20540;-81
2022/08/13 11:17:19;;;;;;;4.93;1.30;;;35.00;46.00;;;;;;5035687;28;20042;-80
2022/08/13 11:20:13;;;;;;;5.57;1.38;;;35.30;47.30;;;;;;5018737;28;20053;-79
2022/08/13 11:23:01;;;;;;;3.40;1.20;;;35.40;46.60;;;;;;5025557;28;20041;-81
2022/08/13 11:25:47;;;;;;;2.70;0.90;;;35.50;46.60;;;;;;5037726;28;20085;-80
2022/08/13 11:28:34;;;;;;;10.07;1.08;;;35.80;46.10;;;;;;5033364;28;20045;-78
2022/08/13 11:31:21;;;;;;;5.65;1.10;;;36.00;45.90;;;;;;5048658;28;20560;-78
2022/08/13 11:34:07;;;;;;;5.80;1.52;;;36.10;46.50;;;;;;5068862;28;20551;-80
2022/08/13 11:36:53;;;;;;;7.22;2.30;;;36.20;45.90;;;;;;5070084;28;20052;-80
2022/08/13 11:39:40;;;;;;;2.53;1.00;;;36.40;45.50;;;;;;5070111;28;20047;-79
2022/08/13 11:42:26;;;;;;;3.15;0.93;;;36.80;44.90;;;;;;5070379;28;20044;-80
2022/08/13 11:45:15;;;;;;;2.88;1.17;;;37.20;44.20;;;;;;5069403;28;20060;-79
2022/08/13 11:48:08;;;;;;;4.03;1.13;;;37.20;43.90;;;;;;5050246;28;20223;-80
2022/08/13 11:50:55;;;;;;;2.47;0.80;;;37.30;42.70;;;;;;5019283;28;20057;-80
2022/08/13 11:53:41;;;;;;;3.55;0.80;;;37.50;43.60;;;;;;4999230;28;20517;-79
2022/08/13 11:56:28;;;;;;;6.50;1.10;;;37.90;43.70;;;;;;5011664;28;20409;-82
2022/08/13 11:59:14;;;;;;;4.18;1.20;;;38.10;41.90;;;;;;5031771;28;20119;-81
2022/08/13 12:02:00;;;;;;;2.33;1.05;;;38.10;42.20;;;;;;5030628;28;20054;-81
2022/08/13 12:04:46;;;;;;;14.50;2.15;;;38.10;40.90;;;;;;5012783;28;20049;-80
2022/08/13 12:07:38;;;;;;;6.90;1.88;;;38.20;41.70;;;;;;5035175;28;20127;-81
2022/08/13 12:10:24;;;;;;;2.08;0.88;;;38.20;41.00;;;;;;5024448;28;20104;-78
2022/08/13 12:13:11;;;;;;;7.50;1.10;;;38.00;40.40;;;;;;5015060;28;20108;-79
2022/08/13 12:15:57;;;;;;;3.97;1.00;;;38.50;42.10;;;;;;5034166;28;20072;-80
2022/08/13 12:18:43;;;;;;;2.85;0.90;;;38.80;40.70;;;;;;5015990;28;20052;-81
2022/08/13 12:21:29;;;;;;;2.85;1.10;;;39.00;40.70;;;;;;5015709;28;20110;-82
2022/08/13 12:24:16;;;;;;;2.55;0.80;;;39.10;40.10;;;;;;5016946;28;20056;-82
2022/08/13 12:27:03;;;;;;;5.55;0.98;;;39.40;39.80;;;;;;5019150;28;20053;-80
2022/08/13 12:29:49;;;;;;;5.70;1.33;;;39.70;39.60;;;;;;5033293;28;20057;-80
2022/08/13 12:36:36;;;;;;;2.33;1.00;;;40.10;39.10;;;;;;5005766;28;20041;-80
2022/08/13 12:39:22;;;;;;;1.88;0.75;;;40.20;39.30;;;;;;5026941;28;21375;-78
2022/08/13 12:42:09;;;;;;;1.98;1.00;;;40.20;38.60;;;;;;5002101;28;20084;-80
2022/08/13 12:44:56;;;;;;;2.65;0.93;;;40.20;38.50;;;;;;5023500;28;20052;-81
2022/08/13 12:47:46;;;;;;;3.28;1.00;;;40.70;38.80;;;;;;5025857;28;20052;-81
2022/08/13 12:50:36;;;;;;;4.90;1.00;;;41.00;38.10;;;;;;5034919;28;20412;-82
2022/08/13 12:53:23;;;;;;;4.55;1.40;;;40.80;36.90;;;;;;5043058;28;20191;-79
2022/08/13 12:56:09;;;;;;;3.25;1.02;;;40.80;37.20;;;;;;5043093;28;20037;-79
2022/08/13 12:58:55;;;;;;;3.60;1.73;;;41.10;38.10;;;;;;5041822;28;20045;-80
2022/08/13 13:01:41;;;;;;;3.80;0.80;;;41.20;36.90;;;;;;5025369;28;20410;-80
2022/08/13 13:05:06;;;;;;;1.83;0.90;;;41.40;36.80;;;;;;5050265;28;20048;-80
2022/08/13 13:07:52;;;;;;;2.95;0.90;;;41.30;35.60;;;;;;5053151;28;20583;-80
2022/08/13 13:10:40;;;;;;;2.97;1.08;;;41.70;36.50;;;;;;5034967;28;20187;-83
2022/08/13 13:13:26;;;;;;;4.47;0.95;;;42.10;37.00;;;;;;5052827;28;20071;-79
2022/08/13 13:16:13;;;;;;;4.63;1.23;;;42.50;36.50;;;;;;5048983;28;20083;-76
2022/08/13 13:18:59;;;;;;;3.67;1.00;;;42.90;36.30;;;;;;5053324;28;20129;-78
2022/08/13 13:21:47;;;;;;;3.10;1.00;;;42.70;35.00;;;;;;5043689;28;20044;-79
2022/08/13 13:24:34;;;;;;;5.03;1.38;;;43.10;36.20;;;;;;5038828;28;20136;-81
2022/08/13 13:27:21;;;;;;;5.75;0.98;;;43.30;39.50;;;;;;5049772;28;20052;-79
2022/08/13 13:30:10;;;;;;;4.95;1.02;;;43.40;38.40;;;;;;5047257;28;20140;-79
2022/08/13 13:32:57;;;;;;;3.05;0.80;;;43.50;38.90;;;;;;5059510;28;20124;-84
2022/08/13 13:35:45;;;;;;;4.63;0.90;;;43.20;38.70;;;;;;5063248;28;20064;-81
2022/08/13 13:38:31;;;;;;;2.25;0.90;;;43.50;39.70;;;;;;5064677;28;20061;-83
2022/08/13 13:41:17;;;;;;;4.05;1.00;;;43.60;40.80;;;;;;5044686;28;20517;-81
2022/08/13 13:44:04;;;;;;;4.55;1.10;;;43.40;40.40;;;;;;5064752;28;20098;-83
2022/08/13 13:46:50;;;;;;;6.50;1.25;;;43.30;41.40;;;;;;5076047;28;20045;-84
2022/08/13 13:49:39;;;;;;;4.15;1.02;;;43.20;40.40;;;;;;5055706;28;20052;-80
2022/08/13 13:52:26;;;;;;;9.57;1.42;;;43.40;40.40;;;;;;5074404;28;20083;-82
2022/08/13 13:55:12;;;;;;;3.55;1.02;;;43.40;40.80;;;;;;5073107;28;20082;-83
2022/08/13 13:58:01;;;;;;;3.33;1.20;;;43.40;41.90;;;;;;5075056;28;20040;-82
2022/08/13 14:00:49;;;;;;;7.40;1.48;;;43.40;41.90;;;;;;5074937;28;20052;-83
2022/08/13 14:03:36;;;;;;;8.13;1.33;;;43.40;40.30;;;;;;5058704;28;20059;-81
2022/08/13 14:06:23;;;;;;;6.38;1.38;;;43.50;40.90;;;;;;5072227;28;20095;-83
2022/08/13 14:09:09;;;;;;;4.00;1.38;;;43.60;40.90;;;;;;5056471;28;20041;-80
2022/08/13 14:12:00;;;;;;;6.55;1.58;;;43.80;41.10;;;;;;5055667;28;20044;-83
2022/08/13 14:14:46;;;;;;;3.10;0.90;;;43.60;40.10;;;;;;5071734;28;20131;-82
2022/08/13 14:17:33;;;;;;;7.05;1.27;;;43.50;39.80;;;;;;5056957;28;20078;-79
2022/08/13 14:20:21;;;;;;;7.05;1.70;;;43.70;40.00;;;;;;5071132;28;20067;-80
2022/08/13 14:23:09;;;;;;;2.95;1.30;;;43.80;40.00;;;;;;5071684;28;20088;-80
2022/08/13 14:25:56;;;;;;;6.03;1.27;;;44.00;40.50;;;;;;5054241;28;20044;-80
2022/08/13 14:28:44;;;;;;;6.38;1.20;;;43.80;39.90;;;;;;5056091;28;20047;-80
2022/08/13 14:31:30;;;;;;;6.40;1.77;;;43.90;39.60;;;;;;5073061;28;20083;-80
2022/08/13 14:34:16;;;;;;;5.60;1.10;;;43.70;39.10;;;;;;5074258;28;20084;-79
2022/08/13 14:37:03;;;;;;;5.93;1.33;;;43.90;39.10;;;;;;5056531;28;20051;-81
2022/08/13 14:39:49;;;;;;;5.90;1.60;;;43.80;39.10;;;;;;5062803;28;20088;-81
2022/08/13 14:42:53;;;;;;;5.88;1.45;;;43.70;39.90;;;;;;5042252;28;20051;-81
2022/08/13 14:45:40;;;;;;;4.85;1.38;;;43.90;39.90;;;;;;5050897;28;20037;-81
2022/08/13 14:48:28;;;;;;;4.13;1.33;;;44.10;40.00;;;;;;5050055;28;20458;-80
2022/08/13 14:51:16;;;;;;;4.03;1.50;;;44.20;40.10;;;;;;5033029;28;20061;-81
2022/08/13 14:54:03;;;;;;;5.28;1.40;;;44.20;40.00;;;;;;5050338;28;20053;-81
2022/08/13 14:56:49;;;;;;;4.75;1.23;;;44.00;39.70;;;;;;5050391;28;20480;-79
2022/08/13 14:59:35;;;;;;;7.57;1.58;;;43.90;39.80;;;;;;5052188;28;20079;-80